sensor_id;sensor_type;location;lat;lon;timestamp;P1;durP1;ratioP1;P2;durP2;ratioP2
27889;SDS011;15238;49.082;9.102;2022-08-20T00:01:50;2.20;;;2.00;;
27889;SDS011;15238;49.082;9.102;2022-08-20T00:03:51;3.47;;;2.03;;
27889;SDS011;15238;49.082;9.102;2022-08-20T00:05:56;7.75;;;2.10;;
27889;SDS011;15238;49.082;9.102;2022-08-20T00:08:02;3.10;;;1.70;;
27889;SDS011;15238;49.082;9.102;2022-08-20T00:10:04;2.88;;;1.98;;
27889;SDS011;15238;49.082;9.102;2022-08-20T00:12:06;2.42;;;1.80;;
27889;SDS011;15238;49.082;9.102;2022-08-20T00:14:08;2.58;;;1.80;;
27889;SDS011;15238;49.082;9.102;2022-08-20T00:16:09;1.75;;;1.50;;
27889;SDS011;15238;49.082;9.102;2022-08-20T00:18:12;4.10;;;1.75;;
27889;SDS011;15238;49.082;9.102;2022-08-20T00:20:13;1.92;;;1.50;;
27889;SDS011;15238;49.082;9.102;2022-08-20T00:22:13;2.67;;;1.77;;
27889;SDS011;15238;49.082;9.102;2022-08-20T00:24:14;8.32;;;1.70;;
27889;SDS011;15238;49.082;9.102;2022-08-20T00:26:14;4.43;;;1.40;;
27889;SDS011;15238;49.082;9.102;2022-08-20T00:28:16;1.67;;;1.10;;
27889;SDS011;15238;49.082;9.102;2022-08-20T00:30:20;3.05;;;1.23;;
27889;SDS011;15238;49.082;9.102;2022-08-20T00:32:21;3.50;;;1.38;;
27889;SDS011;15238;49.082;9.102;2022-08-20T00:34:22;5.95;;;1.40;;
27889;SDS011;15238;49.082;9.102;2022-08-20T00:36:22;1.60;;;1.38;;
27889;SDS011;15238;49.082;9.102;2022-08-20T00:38:23;1.40;;;1.20;;
27889;SDS011;15238;49.082;9.102;2022-08-20T00:40:27;1.67;;;1.17;;
27889;SDS011;15238;49.082;9.102;2022-08-20T00:42:30;2.00;;;1.70;;
27889;SDS011;15238;49.082;9.102;2022-08-20T00:44:43;1.42;;;1.30;;
27889;SDS011;15238;49.082;9.102;2022-08-20T00:46:45;2.40;;;1.42;;
27889;SDS011;15238;49.082;9.102;2022-08-20T00:48:47;1.27;;;1.15;;
27889;SDS011;15238;49.082;9.102;2022-08-20T00:50:50;2.35;;;0.98;;
27889;SDS011;15238;49.082;9.102;2022-08-20T00:52:52;6.63;;;1.20;;
27889;SDS011;15238;49.082;9.102;2022-08-20T00:54:57;1.95;;;1.10;;
27889;SDS011;15238;49.082;9.102;2022-08-20T00:57:02;6.53;;;1.38;;
27889;SDS011;15238;49.082;9.102;2022-08-20T00:59:06;1.52;;;0.95;;
27889;SDS011;15238;49.082;9.102;2022-08-20T01:01:10;2.58;;;1.00;;
27889;SDS011;15238;49.082;9.102;2022-08-20T01:03:12;1.23;;;1.10;;
27889;SDS011;15238;49.082;9.102;2022-08-20T01:05:15;1.95;;;1.00;;
27889;SDS011;15238;49.082;9.102;2022-08-20T01:07:17;1.27;;;0.90;;
27889;SDS011;15238;49.082;9.102;2022-08-20T01:09:21;0.80;;;0.80;;
27889;SDS011;15238;49.082;9.102;2022-08-20T01:11:22;0.85;;;0.60;;
27889;SDS011;15238;49.082;9.102;2022-08-20T01:13:32;2.28;;;0.77;;
27889;SDS011;15238;49.082;9.102;2022-08-20T01:15:44;0.90;;;0.80;;
27889;SDS011;15238;49.082;9.102;2022-08-20T01:17:47;1.65;;;0.90;;
27889;SDS011;15238;49.082;9.102;2022-08-20T01:19:59;1.02;;;0.93;;
27889;SDS011;15238;49.082;9.102;2022-08-20T01:22:09;1.10;;;0.82;;
27889;SDS011;15238;49.082;9.102;2022-08-20T01:24:34;1.40;;;1.02;;
27889;SDS011;15238;49.082;9.102;2022-08-20T01:26:40;1.00;;;0.70;;
27889;SDS011;15238;49.082;9.102;2022-08-20T01:28:44;1.00;;;0.90;;
27889;SDS011;15238;49.082;9.102;2022-08-20T01:30:54;1.95;;;0.75;;
27889;SDS011;15238;49.082;9.102;2022-08-20T01:32:58;3.17;;;0.70;;
27889;SDS011;15238;49.082;9.102;2022-08-20T01:35:04;0.77;;;0.77;;
27889;SDS011;15238;49.082;9.102;2022-08-20T01:37:05;1.25;;;0.70;;
27889;SDS011;15238;49.082;9.102;2022-08-20T01:39:07;1.17;;;0.60;;
27889;SDS011;15238;49.082;9.102;2022-08-20T01:41:15;2.00;;;1.30;;
27889;SDS011;15238;49.082;9.102;2022-08-20T01:43:24;0.77;;;0.77;;
27889;SDS011;15238;49.082;9.102;2022-08-20T01:45:26;1.15;;;0.80;;
27889;SDS011;15238;49.082;9.102;2022-08-20T01:47:30;2.53;;;0.80;;
27889;SDS011;15238;49.082;9.102;2022-08-20T01:49:31;1.80;;;0.73;;
27889;SDS011;15238;49.082;9.102;2022-08-20T01:51:34;1.70;;;0.85;;
27889;SDS011;15238;49.082;9.102;2022-08-20T01:53:39;1.15;;;0.75;;
27889;SDS011;15238;49.082;9.102;2022-08-20T01:55:45;1.42;;;0.80;;
27889;SDS011;15238;49.082;9.102;2022-08-20T01:57:46;4.57;;;1.00;;
27889;SDS011;15238;49.082;9.102;2022-08-20T01:59:47;1.75;;;0.73;;
27889;SDS011;15238;49.082;9.102;2022-08-20T02:01:49;0.75;;;0.75;;
27889;SDS011;15238;49.082;9.102;2022-08-20T02:03:50;3.03;;;0.82;;
27889;SDS011;15238;49.082;9.102;2022-08-20T02:05:52;1.17;;;0.85;;
27889;SDS011;15238;49.082;9.102;2022-08-20T02:07:53;0.90;;;0.60;;
27889;SDS011;15238;49.082;9.102;2022-08-20T02:09:54;2.45;;;0.68;;
27889;SDS011;15238;49.082;9.102;2022-08-20T02:11:55;1.67;;;0.93;;
27889;SDS011;15238;49.082;9.102;2022-08-20T02:13:57;1.15;;;0.80;;
27889;SDS011;15238;49.082;9.102;2022-08-20T02:15:57;3.05;;;0.88;;
27889;SDS011;15238;49.082;9.102;2022-08-20T02:17:58;0.73;;;0.65;;
27889;SDS011;15238;49.082;9.102;2022-08-20T02:22:26;2.70;;;0.70;;
27889;SDS011;15238;49.082;9.102;2022-08-20T02:24:34;1.23;;;0.70;;
27889;SDS011;15238;49.082;9.102;2022-08-20T02:26:35;0.60;;;0.60;;
27889;SDS011;15238;49.082;9.102;2022-08-20T02:28:36;1.08;;;0.80;;
27889;SDS011;15238;49.082;9.102;2022-08-20T02:30:40;3.15;;;1.00;;
27889;SDS011;15238;49.082;9.102;2022-08-20T02:32:42;3.38;;;1.02;;
27889;SDS011;15238;49.082;9.102;2022-08-20T02:34:43;1.02;;;0.88;;
27889;SDS011;15238;49.082;9.102;2022-08-20T02:36:44;1.15;;;0.80;;
27889;SDS011;15238;49.082;9.102;2022-08-20T02:38:48;1.92;;;0.80;;
27889;SDS011;15238;49.082;9.102;2022-08-20T02:40:48;1.30;;;0.88;;
27889;SDS011;15238;49.082;9.102;2022-08-20T02:42:51;3.03;;;1.05;;
27889;SDS011;15238;49.082;9.102;2022-08-20T02:44:52;1.40;;;0.95;;
27889;SDS011;15238;49.082;9.102;2022-08-20T02:46:53;2.33;;;0.75;;
27889;SDS011;15238;49.082;9.102;2022-08-20T02:48:54;1.83;;;1.20;;
27889;SDS011;15238;49.082;9.102;2022-08-20T02:50:59;1.45;;;1.30;;
27889;SDS011;15238;49.082;9.102;2022-08-20T02:53:02;1.42;;;0.80;;
27889;SDS011;15238;49.082;9.102;2022-08-20T02:55:03;2.15;;;0.85;;
27889;SDS011;15238;49.082;9.102;2022-08-20T02:57:04;0.93;;;0.82;;
27889;SDS011;15238;49.082;9.102;2022-08-20T02:59:10;1.33;;;1.05;;
27889;SDS011;15238;49.082;9.102;2022-08-20T03:01:12;0.82;;;0.77;;
27889;SDS011;15238;49.082;9.102;2022-08-20T03:03:18;2.45;;;0.88;;
27889;SDS011;15238;49.082;9.102;2022-08-20T03:05:21;1.10;;;1.00;;
27889;SDS011;15238;49.082;9.102;2022-08-20T03:07:22;1.65;;;1.00;;
27889;SDS011;15238;49.082;9.102;2022-08-20T03:09:26;1.30;;;1.05;;
27889;SDS011;15238;49.082;9.102;2022-08-20T03:11:26;2.45;;;1.00;;
27889;SDS011;15238;49.082;9.102;2022-08-20T03:13:27;2.53;;;1.17;;
27889;SDS011;15238;49.082;9.102;2022-08-20T03:15:28;1.00;;;0.93;;
27889;SDS011;15238;49.082;9.102;2022-08-20T03:17:30;1.63;;;1.35;;
27889;SDS011;15238;49.082;9.102;2022-08-20T03:19:31;1.85;;;1.17;;
27889;SDS011;15238;49.082;9.102;2022-08-20T03:21:32;1.25;;;1.15;;
27889;SDS011;15238;49.082;9.102;2022-08-20T03:23:34;1.83;;;1.35;;
27889;SDS011;15238;49.082;9.102;2022-08-20T03:25:37;1.48;;;1.35;;
27889;SDS011;15238;49.082;9.102;2022-08-20T03:27:40;2.70;;;1.10;;
27889;SDS011;15238;49.082;9.102;2022-08-20T03:29:41;3.35;;;1.58;;
27889;SDS011;15238;49.082;9.102;2022-08-20T03:31:42;1.80;;;1.20;;
27889;SDS011;15238;49.082;9.102;2022-08-20T03:33:42;1.88;;;1.30;;
27889;SDS011;15238;49.082;9.102;2022-08-20T03:35:46;1.90;;;1.50;;
27889;SDS011;15238;49.082;9.102;2022-08-20T03:37:47;4.05;;;1.33;;
27889;SDS011;15238;49.082;9.102;2022-08-20T03:39:48;1.10;;;1.00;;
27889;SDS011;15238;49.082;9.102;2022-08-20T03:41:49;1.40;;;1.30;;
27889;SDS011;15238;49.082;9.102;2022-08-20T03:43:51;1.38;;;1.27;;
27889;SDS011;15238;49.082;9.102;2022-08-20T03:45:54;1.55;;;1.08;;
27889;SDS011;15238;49.082;9.102;2022-08-20T03:47:57;2.70;;;1.52;;
27889;SDS011;15238;49.082;9.102;2022-08-20T03:50:01;1.58;;;1.27;;
27889;SDS011;15238;49.082;9.102;2022-08-20T03:52:04;2.28;;;1.25;;
27889;SDS011;15238;49.082;9.102;2022-08-20T03:54:04;1.52;;;1.17;;
27889;SDS011;15238;49.082;9.102;2022-08-20T03:56:05;1.48;;;1.20;;
27889;SDS011;15238;49.082;9.102;2022-08-20T03:58:07;2.55;;;1.40;;
27889;SDS011;15238;49.082;9.102;2022-08-20T04:00:09;3.28;;;1.52;;
27889;SDS011;15238;49.082;9.102;2022-08-20T04:02:11;1.40;;;1.15;;
27889;SDS011;15238;49.082;9.102;2022-08-20T04:04:13;2.00;;;1.10;;
27889;SDS011;15238;49.082;9.102;2022-08-20T04:06:14;4.07;;;1.50;;
27889;SDS011;15238;49.082;9.102;2022-08-20T04:08:16;1.88;;;1.50;;
27889;SDS011;15238;49.082;9.102;2022-08-20T04:10:22;1.90;;;1.20;;
27889;SDS011;15238;49.082;9.102;2022-08-20T04:12:24;1.60;;;1.30;;
27889;SDS011;15238;49.082;9.102;2022-08-20T04:14:24;3.47;;;1.63;;
27889;SDS011;15238;49.082;9.102;2022-08-20T04:16:25;3.22;;;1.45;;
27889;SDS011;15238;49.082;9.102;2022-08-20T04:18:26;3.03;;;1.50;;
27889;SDS011;15238;49.082;9.102;2022-08-20T04:20:27;3.20;;;1.27;;
27889;SDS011;15238;49.082;9.102;2022-08-20T04:22:27;2.53;;;1.80;;
27889;SDS011;15238;49.082;9.102;2022-08-20T04:24:28;2.35;;;1.45;;
27889;SDS011;15238;49.082;9.102;2022-08-20T04:26:29;1.92;;;1.73;;
27889;SDS011;15238;49.082;9.102;2022-08-20T04:28:30;3.22;;;1.42;;
27889;SDS011;15238;49.082;9.102;2022-08-20T04:30:30;3.38;;;1.50;;
27889;SDS011;15238;49.082;9.102;2022-08-20T04:32:32;2.72;;;1.70;;
27889;SDS011;15238;49.082;9.102;2022-08-20T04:34:35;2.25;;;1.40;;
27889;SDS011;15238;49.082;9.102;2022-08-20T04:36:35;2.15;;;1.67;;
27889;SDS011;15238;49.082;9.102;2022-08-20T04:38:36;1.88;;;1.40;;
27889;SDS011;15238;49.082;9.102;2022-08-20T04:40:37;4.22;;;1.30;;
27889;SDS011;15238;49.082;9.102;2022-08-20T04:42:52;3.67;;;1.58;;
27889;SDS011;15238;49.082;9.102;2022-08-20T04:44:53;1.67;;;1.58;;
27889;SDS011;15238;49.082;9.102;2022-08-20T04:46:53;2.55;;;1.52;;
27889;SDS011;15238;49.082;9.102;2022-08-20T04:48:54;2.22;;;1.83;;
27889;SDS011;15238;49.082;9.102;2022-08-20T04:50:56;8.98;;;1.40;;
27889;SDS011;15238;49.082;9.102;2022-08-20T04:52:57;3.55;;;1.58;;
27889;SDS011;15238;49.082;9.102;2022-08-20T04:54:58;7.43;;;1.90;;
27889;SDS011;15238;49.082;9.102;2022-08-20T04:56:59;2.15;;;1.67;;
27889;SDS011;15238;49.082;9.102;2022-08-20T04:59:00;3.58;;;1.50;;
27889;SDS011;15238;49.082;9.102;2022-08-20T05:01:02;2.78;;;1.40;;
27889;SDS011;15238;49.082;9.102;2022-08-20T05:03:04;4.00;;;1.85;;
27889;SDS011;15238;49.082;9.102;2022-08-20T05:05:08;3.42;;;1.70;;
27889;SDS011;15238;49.082;9.102;2022-08-20T05:07:10;5.45;;;1.58;;
27889;SDS011;15238;49.082;9.102;2022-08-20T05:09:11;3.78;;;2.05;;
27889;SDS011;15238;49.082;9.102;2022-08-20T05:11:12;2.13;;;1.77;;
27889;SDS011;15238;49.082;9.102;2022-08-20T05:13:16;3.58;;;1.83;;
27889;SDS011;15238;49.082;9.102;2022-08-20T05:15:17;3.92;;;1.90;;
27889;SDS011;15238;49.082;9.102;2022-08-20T05:17:18;4.90;;;2.30;;
27889;SDS011;15238;49.082;9.102;2022-08-20T05:19:18;2.90;;;2.13;;
27889;SDS011;15238;49.082;9.102;2022-08-20T05:21:19;4.32;;;1.85;;
27889;SDS011;15238;49.082;9.102;2022-08-20T05:23:20;4.47;;;1.98;;
27889;SDS011;15238;49.082;9.102;2022-08-20T05:25:22;3.33;;;2.08;;
27889;SDS011;15238;49.082;9.102;2022-08-20T05:27:23;3.97;;;1.90;;
27889;SDS011;15238;49.082;9.102;2022-08-20T05:29:26;8.70;;;2.10;;
27889;SDS011;15238;49.082;9.102;2022-08-20T05:31:27;2.40;;;2.15;;
27889;SDS011;15238;49.082;9.102;2022-08-20T05:33:28;2.80;;;2.05;;
27889;SDS011;15238;49.082;9.102;2022-08-20T05:35:29;7.40;;;2.63;;
27889;SDS011;15238;49.082;9.102;2022-08-20T05:37:30;3.08;;;2.00;;
27889;SDS011;15238;49.082;9.102;2022-08-20T05:39:30;2.42;;;1.92;;
27889;SDS011;15238;49.082;9.102;2022-08-20T05:41:31;3.42;;;2.45;;
27889;SDS011;15238;49.082;9.102;2022-08-20T05:43:32;3.15;;;2.17;;
27889;SDS011;15238;49.082;9.102;2022-08-20T05:45:33;2.70;;;2.30;;
27889;SDS011;15238;49.082;9.102;2022-08-20T05:47:39;2.88;;;1.90;;
27889;SDS011;15238;49.082;9.102;2022-08-20T05:49:40;4.63;;;2.20;;
27889;SDS011;15238;49.082;9.102;2022-08-20T05:51:41;3.72;;;2.20;;
27889;SDS011;15238;49.082;9.102;2022-08-20T05:53:42;1.90;;;1.60;;
27889;SDS011;15238;49.082;9.102;2022-08-20T05:55:43;3.70;;;1.80;;
27889;SDS011;15238;49.082;9.102;2022-08-20T05:57:44;2.15;;;1.58;;
27889;SDS011;15238;49.082;9.102;2022-08-20T05:59:45;2.33;;;1.75;;
27889;SDS011;15238;49.082;9.102;2022-08-20T06:01:46;3.42;;;2.00;;
27889;SDS011;15238;49.082;9.102;2022-08-20T06:03:46;1.85;;;1.67;;
27889;SDS011;15238;49.082;9.102;2022-08-20T06:06:06;3.95;;;1.88;;
27889;SDS011;15238;49.082;9.102;2022-08-20T06:08:07;2.40;;;2.20;;
27889;SDS011;15238;49.082;9.102;2022-08-20T06:10:12;3.78;;;2.28;;
27889;SDS011;15238;49.082;9.102;2022-08-20T06:12:13;2.38;;;2.03;;
27889;SDS011;15238;49.082;9.102;2022-08-20T06:14:14;3.50;;;2.35;;
27889;SDS011;15238;49.082;9.102;2022-08-20T06:16:15;3.72;;;2.50;;
27889;SDS011;15238;49.082;9.102;2022-08-20T06:18:16;5.20;;;2.50;;
27889;SDS011;15238;49.082;9.102;2022-08-20T06:20:16;4.72;;;2.78;;
27889;SDS011;15238;49.082;9.102;2022-08-20T06:22:17;5.45;;;2.63;;
27889;SDS011;15238;49.082;9.102;2022-08-20T06:24:17;5.90;;;2.63;;
27889;SDS011;15238;49.082;9.102;2022-08-20T06:26:19;5.57;;;2.78;;
27889;SDS011;15238;49.082;9.102;2022-08-20T06:28:19;4.80;;;2.60;;
27889;SDS011;15238;49.082;9.102;2022-08-20T06:30:20;6.43;;;2.92;;
27889;SDS011;15238;49.082;9.102;2022-08-20T06:32:21;4.63;;;2.58;;
27889;SDS011;15238;49.082;9.102;2022-08-20T06:34:23;4.05;;;2.60;;
27889;SDS011;15238;49.082;9.102;2022-08-20T06:36:27;3.38;;;2.95;;
27889;SDS011;15238;49.082;9.102;2022-08-20T06:38:27;4.65;;;2.72;;
27889;SDS011;15238;49.082;9.102;2022-08-20T06:40:28;3.13;;;2.75;;
27889;SDS011;15238;49.082;9.102;2022-08-20T06:42:28;4.07;;;2.90;;
27889;SDS011;15238;49.082;9.102;2022-08-20T06:44:29;3.40;;;2.60;;
27889;SDS011;15238;49.082;9.102;2022-08-20T06:46:30;4.13;;;3.00;;
27889;SDS011;15238;49.082;9.102;2022-08-20T06:48:31;4.47;;;2.65;;
27889;SDS011;15238;49.082;9.102;2022-08-20T06:50:32;3.28;;;2.83;;
27889;SDS011;15238;49.082;9.102;2022-08-20T06:52:39;3.47;;;2.40;;
27889;SDS011;15238;49.082;9.102;2022-08-20T06:54:40;3.72;;;2.55;;
27889;SDS011;15238;49.082;9.102;2022-08-20T06:56:40;3.55;;;2.60;;
27889;SDS011;15238;49.082;9.102;2022-08-20T06:58:43;6.22;;;3.17;;
27889;SDS011;15238;49.082;9.102;2022-08-20T07:00:43;2.83;;;2.55;;
27889;SDS011;15238;49.082;9.102;2022-08-20T07:02:44;3.63;;;2.72;;
27889;SDS011;15238;49.082;9.102;2022-08-20T07:04:47;3.65;;;2.63;;
27889;SDS011;15238;49.082;9.102;2022-08-20T07:06:47;3.55;;;2.97;;
27889;SDS011;15238;49.082;9.102;2022-08-20T07:08:50;4.88;;;2.85;;
27889;SDS011;15238;49.082;9.102;2022-08-20T07:10:51;2.92;;;2.40;;
27889;SDS011;15238;49.082;9.102;2022-08-20T07:12:52;2.53;;;2.30;;
27889;SDS011;15238;49.082;9.102;2022-08-20T07:14:53;2.65;;;2.45;;
27889;SDS011;15238;49.082;9.102;2022-08-20T07:16:54;3.50;;;2.50;;
27889;SDS011;15238;49.082;9.102;2022-08-20T07:18:56;3.30;;;2.42;;
27889;SDS011;15238;49.082;9.102;2022-08-20T07:20:57;3.95;;;2.45;;
27889;SDS011;15238;49.082;9.102;2022-08-20T07:22:58;4.60;;;2.65;;
27889;SDS011;15238;49.082;9.102;2022-08-20T07:24:59;3.72;;;2.60;;
27889;SDS011;15238;49.082;9.102;2022-08-20T07:27:01;2.60;;;2.28;;
27889;SDS011;15238;49.082;9.102;2022-08-20T07:29:02;2.58;;;2.30;;
27889;SDS011;15238;49.082;9.102;2022-08-20T07:31:03;2.50;;;2.30;;
27889;SDS011;15238;49.082;9.102;2022-08-20T07:35:23;3.15;;;2.38;;
27889;SDS011;15238;49.082;9.102;2022-08-20T07:37:24;3.97;;;2.42;;
27889;SDS011;15238;49.082;9.102;2022-08-20T07:39:25;4.25;;;2.42;;
27889;SDS011;15238;49.082;9.102;2022-08-20T07:41:25;5.05;;;2.25;;
27889;SDS011;15238;49.082;9.102;2022-08-20T07:43:26;6.03;;;2.20;;
27889;SDS011;15238;49.082;9.102;2022-08-20T07:45:28;3.25;;;2.50;;
27889;SDS011;15238;49.082;9.102;2022-08-20T07:47:30;11.93;;;2.50;;
27889;SDS011;15238;49.082;9.102;2022-08-20T07:49:30;5.60;;;2.30;;
27889;SDS011;15238;49.082;9.102;2022-08-20T07:51:31;2.40;;;2.20;;
27889;SDS011;15238;49.082;9.102;2022-08-20T07:53:32;3.13;;;2.38;;
27889;SDS011;15238;49.082;9.102;2022-08-20T07:55:34;4.70;;;2.40;;
27889;SDS011;15238;49.082;9.102;2022-08-20T07:57:35;2.88;;;2.60;;
27889;SDS011;15238;49.082;9.102;2022-08-20T07:59:37;3.28;;;2.97;;
27889;SDS011;15238;49.082;9.102;2022-08-20T08:01:37;4.32;;;2.10;;
27889;SDS011;15238;49.082;9.102;2022-08-20T08:03:38;3.55;;;2.30;;
27889;SDS011;15238;49.082;9.102;2022-08-20T08:05:40;2.67;;;2.05;;
27889;SDS011;15238;49.082;9.102;2022-08-20T08:07:44;4.38;;;2.33;;
27889;SDS011;15238;49.082;9.102;2022-08-20T08:09:45;3.65;;;2.53;;
27889;SDS011;15238;49.082;9.102;2022-08-20T08:11:47;4.65;;;2.30;;
27889;SDS011;15238;49.082;9.102;2022-08-20T08:13:49;3.15;;;2.38;;
27889;SDS011;15238;49.082;9.102;2022-08-20T08:15:50;3.97;;;2.28;;
27889;SDS011;15238;49.082;9.102;2022-08-20T08:18:00;4.18;;;2.53;;
27889;SDS011;15238;49.082;9.102;2022-08-20T08:20:07;5.47;;;2.55;;
27889;SDS011;15238;49.082;9.102;2022-08-20T08:22:10;3.42;;;2.40;;
27889;SDS011;15238;49.082;9.102;2022-08-20T08:24:15;6.68;;;2.70;;
27889;SDS011;15238;49.082;9.102;2022-08-20T08:26:17;6.90;;;2.63;;
27889;SDS011;15238;49.082;9.102;2022-08-20T08:28:27;4.55;;;2.70;;
27889;SDS011;15238;49.082;9.102;2022-08-20T08:30:30;5.93;;;2.38;;
27889;SDS011;15238;49.082;9.102;2022-08-20T08:32:31;5.53;;;1.52;;
27889;SDS011;15238;49.082;9.102;2022-08-20T08:34:34;3.10;;;1.80;;
27889;SDS011;15238;49.082;9.102;2022-08-20T08:36:45;2.80;;;1.75;;
27889;SDS011;15238;49.082;9.102;2022-08-20T08:38:52;3.65;;;1.50;;
27889;SDS011;15238;49.082;9.102;2022-08-20T08:40:57;2.20;;;2.00;;
27889;SDS011;15238;49.082;9.102;2022-08-20T08:43:11;2.95;;;2.05;;
27889;SDS011;15238;49.082;9.102;2022-08-20T08:45:15;3.35;;;2.38;;
27889;SDS011;15238;49.082;9.102;2022-08-20T08:47:29;3.60;;;2.13;;
27889;SDS011;15238;49.082;9.102;2022-08-20T08:49:35;5.85;;;2.78;;
27889;SDS011;15238;49.082;9.102;2022-08-20T08:53:46;4.72;;;3.65;;
27889;SDS011;15238;49.082;9.102;2022-08-20T08:55:53;4.57;;;4.18;;
27889;SDS011;15238;49.082;9.102;2022-08-20T08:57:55;11.07;;;7.03;;
27889;SDS011;15238;49.082;9.102;2022-08-20T08:59:59;12.65;;;6.50;;
27889;SDS011;15238;49.082;9.102;2022-08-20T09:02:21;9.60;;;6.28;;
27889;SDS011;15238;49.082;9.102;2022-08-20T09:04:29;7.40;;;6.65;;
27889;SDS011;15238;49.082;9.102;2022-08-20T09:06:32;8.32;;;7.55;;
27889;SDS011;15238;49.082;9.102;2022-08-20T09:08:44;11.55;;;9.65;;
27889;SDS011;15238;49.082;9.102;2022-08-20T09:10:46;9.10;;;7.63;;
27889;SDS011;15238;49.082;9.102;2022-08-20T09:12:47;8.45;;;7.65;;
27889;SDS011;15238;49.082;9.102;2022-08-20T09:14:48;7.82;;;6.93;;
27889;SDS011;15238;49.082;9.102;2022-08-20T09:16:50;10.27;;;6.90;;
27889;SDS011;15238;49.082;9.102;2022-08-20T09:18:50;12.52;;;8.07;;
27889;SDS011;15238;49.082;9.102;2022-08-20T09:20:52;8.80;;;7.82;;
27889;SDS011;15238;49.082;9.102;2022-08-20T09:22:52;7.95;;;6.32;;
27889;SDS011;15238;49.082;9.102;2022-08-20T09:24:53;5.78;;;5.10;;
27889;SDS011;15238;49.082;9.102;2022-08-20T09:26:55;7.20;;;4.55;;
27889;SDS011;15238;49.082;9.102;2022-08-20T09:28:55;7.25;;;3.65;;
27889;SDS011;15238;49.082;9.102;2022-08-20T09:30:56;4.22;;;3.78;;
27889;SDS011;15238;49.082;9.102;2022-08-20T09:33:01;3.72;;;3.28;;
27889;SDS011;15238;49.082;9.102;2022-08-20T09:35:02;5.57;;;3.78;;
27889;SDS011;15238;49.082;9.102;2022-08-20T09:37:03;4.50;;;3.70;;
27889;SDS011;15238;49.082;9.102;2022-08-20T09:39:04;5.68;;;3.80;;
27889;SDS011;15238;49.082;9.102;2022-08-20T09:41:05;5.63;;;4.20;;
27889;SDS011;15238;49.082;9.102;2022-08-20T09:43:06;3.88;;;3.58;;
27889;SDS011;15238;49.082;9.102;2022-08-20T09:45:07;4.13;;;3.72;;
27889;SDS011;15238;49.082;9.102;2022-08-20T09:47:09;4.20;;;3.45;;
27889;SDS011;15238;49.082;9.102;2022-08-20T09:49:10;4.00;;;3.58;;
27889;SDS011;15238;49.082;9.102;2022-08-20T09:51:10;5.80;;;3.30;;
27889;SDS011;15238;49.082;9.102;2022-08-20T09:53:11;5.85;;;3.60;;
27889;SDS011;15238;49.082;9.102;2022-08-20T09:57:17;5.85;;;4.30;;
27889;SDS011;15238;49.082;9.102;2022-08-20T09:59:18;6.60;;;4.25;;
27889;SDS011;15238;49.082;9.102;2022-08-20T10:01:19;5.88;;;4.32;;
27889;SDS011;15238;49.082;9.102;2022-08-20T10:03:20;5.63;;;4.05;;
27889;SDS011;15238;49.082;9.102;2022-08-20T10:05:21;5.05;;;3.83;;
27889;SDS011;15238;49.082;9.102;2022-08-20T10:07:22;9.75;;;4.07;;
27889;SDS011;15238;49.082;9.102;2022-08-20T10:09:22;4.72;;;3.05;;
27889;SDS011;15238;49.082;9.102;2022-08-20T10:11:23;3.92;;;2.90;;
27889;SDS011;15238;49.082;9.102;2022-08-20T10:13:23;5.78;;;3.50;;
27889;SDS011;15238;49.082;9.102;2022-08-20T10:15:24;8.45;;;3.80;;
27889;SDS011;15238;49.082;9.102;2022-08-20T10:17:25;5.45;;;3.30;;
27889;SDS011;15238;49.082;9.102;2022-08-20T10:19:28;4.25;;;3.28;;
27889;SDS011;15238;49.082;9.102;2022-08-20T10:21:30;4.32;;;3.38;;
27889;SDS011;15238;49.082;9.102;2022-08-20T10:23:32;5.10;;;3.53;;
27889;SDS011;15238;49.082;9.102;2022-08-20T10:25:33;3.75;;;3.08;;
27889;SDS011;15238;49.082;9.102;2022-08-20T10:27:33;5.28;;;3.40;;
27889;SDS011;15238;49.082;9.102;2022-08-20T10:29:34;4.45;;;3.00;;
27889;SDS011;15238;49.082;9.102;2022-08-20T10:31:35;1.77;;;1.67;;
27889;SDS011;15238;49.082;9.102;2022-08-20T10:33:35;1.50;;;1.40;;
27889;SDS011;15238;49.082;9.102;2022-08-20T10:35:37;1.10;;;1.00;;
27889;SDS011;15238;49.082;9.102;2022-08-20T10:37:37;3.13;;;1.35;;
27889;SDS011;15238;49.082;9.102;2022-08-20T10:39:38;2.65;;;1.00;;
27889;SDS011;15238;49.082;9.102;2022-08-20T10:41:38;1.95;;;1.15;;
27889;SDS011;15238;49.082;9.102;2022-08-20T10:43:39;2.13;;;1.50;;
27889;SDS011;15238;49.082;9.102;2022-08-20T10:45:39;2.33;;;1.58;;
27889;SDS011;15238;49.082;9.102;2022-08-20T10:47:40;1.77;;;1.52;;
27889;SDS011;15238;49.082;9.102;2022-08-20T10:49:41;1.73;;;1.42;;
27889;SDS011;15238;49.082;9.102;2022-08-20T10:51:41;2.35;;;2.05;;
27889;SDS011;15238;49.082;9.102;2022-08-20T10:53:42;2.85;;;2.40;;
27889;SDS011;15238;49.082;9.102;2022-08-20T10:55:43;2.55;;;2.00;;
27889;SDS011;15238;49.082;9.102;2022-08-20T10:57:44;2.25;;;2.05;;
27889;SDS011;15238;49.082;9.102;2022-08-20T10:59:45;2.38;;;1.88;;
27889;SDS011;15238;49.082;9.102;2022-08-20T11:01:48;3.08;;;2.17;;
27889;SDS011;15238;49.082;9.102;2022-08-20T11:03:48;3.20;;;2.13;;
27889;SDS011;15238;49.082;9.102;2022-08-20T11:05:49;2.65;;;2.45;;
27889;SDS011;15238;49.082;9.102;2022-08-20T11:07:49;3.22;;;1.83;;
27889;SDS011;15238;49.082;9.102;2022-08-20T11:09:50;3.25;;;2.35;;
27889;SDS011;15238;49.082;9.102;2022-08-20T11:11:51;5.03;;;2.65;;
27889;SDS011;15238;49.082;9.102;2022-08-20T11:13:51;2.90;;;2.60;;
27889;SDS011;15238;49.082;9.102;2022-08-20T11:15:52;3.10;;;2.63;;
27889;SDS011;15238;49.082;9.102;2022-08-20T11:17:52;3.63;;;3.20;;
27889;SDS011;15238;49.082;9.102;2022-08-20T11:19:54;4.78;;;3.08;;
27889;SDS011;15238;49.082;9.102;2022-08-20T11:21:56;3.45;;;3.15;;
27889;SDS011;15238;49.082;9.102;2022-08-20T11:23:56;3.20;;;2.90;;
27889;SDS011;15238;49.082;9.102;2022-08-20T11:25:57;4.60;;;3.03;;
27889;SDS011;15238;49.082;9.102;2022-08-20T11:27:57;2.65;;;2.30;;
27889;SDS011;15238;49.082;9.102;2022-08-20T11:29:58;4.32;;;2.70;;
27889;SDS011;15238;49.082;9.102;2022-08-20T11:31:59;2.72;;;2.47;;
27889;SDS011;15238;49.082;9.102;2022-08-20T11:33:59;3.88;;;2.60;;
27889;SDS011;15238;49.082;9.102;2022-08-20T11:36:00;2.53;;;2.33;;
27889;SDS011;15238;49.082;9.102;2022-08-20T11:38:00;2.33;;;2.08;;
27889;SDS011;15238;49.082;9.102;2022-08-20T11:40:02;2.20;;;2.00;;
27889;SDS011;15238;49.082;9.102;2022-08-20T11:42:03;3.30;;;1.95;;
27889;SDS011;15238;49.082;9.102;2022-08-20T11:44:04;2.28;;;1.45;;
27889;SDS011;15238;49.082;9.102;2022-08-20T11:46:05;2.25;;;1.60;;
27889;SDS011;15238;49.082;9.102;2022-08-20T11:48:06;1.70;;;1.60;;
27889;SDS011;15238;49.082;9.102;2022-08-20T11:50:07;2.25;;;1.50;;
27889;SDS011;15238;49.082;9.102;2022-08-20T11:52:11;1.70;;;1.60;;
27889;SDS011;15238;49.082;9.102;2022-08-20T11:54:11;3.10;;;1.40;;
27889;SDS011;15238;49.082;9.102;2022-08-20T11:56:12;1.70;;;1.42;;
27889;SDS011;15238;49.082;9.102;2022-08-20T11:58:15;1.90;;;0.93;;
27889;SDS011;15238;49.082;9.102;2022-08-20T12:00:20;1.30;;;1.00;;
27889;SDS011;15238;49.082;9.102;2022-08-20T12:02:23;1.90;;;1.10;;
27889;SDS011;15238;49.082;9.102;2022-08-20T12:04:23;2.03;;;1.00;;
27889;SDS011;15238;49.082;9.102;2022-08-20T12:06:26;2.30;;;1.10;;
27889;SDS011;15238;49.082;9.102;2022-08-20T12:08:27;0.90;;;0.90;;
27889;SDS011;15238;49.082;9.102;2022-08-20T12:10:28;1.52;;;0.90;;
27889;SDS011;15238;49.082;9.102;2022-08-20T12:12:32;2.50;;;1.02;;
27889;SDS011;15238;49.082;9.102;2022-08-20T12:14:33;1.80;;;1.00;;
27889;SDS011;15238;49.082;9.102;2022-08-20T12:16:37;0.60;;;0.60;;
27889;SDS011;15238;49.082;9.102;2022-08-20T12:18:43;1.25;;;0.88;;
27889;SDS011;15238;49.082;9.102;2022-08-20T12:20:44;1.77;;;0.75;;
27889;SDS011;15238;49.082;9.102;2022-08-20T12:22:45;2.72;;;0.90;;
27889;SDS011;15238;49.082;9.102;2022-08-20T12:24:45;2.75;;;0.88;;
27889;SDS011;15238;49.082;9.102;2022-08-20T12:26:46;1.30;;;0.90;;